Time;durP1;ratioP1;P1;durP2;ratioP2;P2;SDS_P1;SDS_P2;PMS_P1;PMS_P2;Temp;Humidity;BMP_temperature;BMP_pressure;BME280_temperature;BME280_humidity;BME280_pressure;Samples;Min_cycle;Max_cycle;Signal;HPM_P1;HPM_P2
2022/06/29 00:00:44;;;;;;;5.00;4.27;;;;;;;21.56;62.48;97359.13;5072578;28;20276;-73
2022/06/29 00:03:10;;;;;;;4.93;4.53;;;;;;;21.57;62.03;97363.44;5071962;28;20582;-73
2022/06/29 00:05:36;;;;;;;7.77;4.77;;;;;;;21.57;62.48;97346.63;5071146;28;20261;-74
2022/06/29 00:08:01;;;;;;;6.03;4.40;;;;;;;21.54;62.34;97347.06;5072102;28;20179;-74
2022/06/29 00:10:27;;;;;;;5.73;4.60;;;;;;;21.54;62.25;97345.22;5070442;28;20194;-73
2022/06/29 00:12:53;;;;;;;8.90;5.13;;;;;;;21.56;62.00;97345.78;5075948;28;20210;-74
2022/06/29 00:15:20;;;;;;;5.07;4.40;;;;;;;21.50;62.45;97341.34;5069930;28;20215;-74
2022/06/29 00:17:46;;;;;;;4.50;4.10;;;;;;;21.46;62.33;97330.31;5066421;28;20178;-74
2022/06/29 00:20:12;;;;;;;4.57;4.17;;;;;;;21.42;62.45;97329.13;5070352;28;20813;-73
2022/06/29 00:22:39;;;;;;;5.70;4.37;;;;;;;21.39;62.69;97328.75;5054032;28;20423;-73
2022/06/29 00:25:05;;;;;;;4.70;4.40;;;;;;;21.31;62.70;97325.31;5071507;28;20477;-73
2022/06/29 00:27:32;;;;;;;4.50;4.20;;;;;;;21.38;62.42;97332.44;5067937;28;20451;-73
2022/06/29 00:29:58;;;;;;;4.50;4.10;;;;;;;21.29;62.82;97322.06;5075231;28;20451;-73
2022/06/29 00:32:24;;;;;;;6.70;4.43;;;;;;;21.24;63.08;97316.56;5072133;28;20436;-72
2022/06/29 00:34:49;;;;;;;4.80;4.33;;;;;;;21.18;63.18;97312.94;5071892;28;20440;-71
2022/06/29 00:37:15;;;;;;;6.30;4.20;;;;;;;21.17;62.95;97311.28;5072764;28;20233;-71
2022/06/29 00:39:40;;;;;;;4.80;4.23;;;;;;;21.18;63.00;97309.44;5071216;28;20356;-72
2022/06/29 00:42:06;;;;;;;6.50;4.30;;;;;;;21.16;63.05;97312.31;5071321;28;20210;-71
2022/06/29 00:44:32;;;;;;;5.00;4.50;;;;;;;21.12;63.37;97305.78;5057593;28;20626;-71
2022/06/29 00:47:00;;;;;;;4.63;4.30;;;;;;;20.96;63.96;97303.69;5060485;28;20424;-71
2022/06/29 00:49:28;;;;;;;4.90;4.50;;;;;;;21.09;63.53;97297.41;5070929;28;20448;-72
2022/06/29 00:52:14;;;;;;;6.63;4.10;;;;;;;21.19;63.12;97303.06;5068026;28;20428;-73
2022/06/29 00:54:52;;;;;;;4.37;4.00;;;;;;;21.27;63.02;97308.16;5064711;28;20922;-74
2022/06/29 00:57:20;;;;;;;6.20;4.13;;;;;;;21.23;62.87;97304.28;5078954;28;20459;-74
2022/06/29 00:59:47;;;;;;;6.37;4.83;;;;;;;21.21;62.98;97303.66;5071159;28;20447;-73
2022/06/29 01:02:20;;;;;;;5.17;4.77;;;;;;;21.20;62.66;97298.56;5063675;28;20447;-73
2022/06/29 01:04:46;;;;;;;5.27;4.77;;;;;;;21.16;62.98;97298.19;5071079;28;20424;-72
2022/06/29 01:07:15;;;;;;;5.70;4.50;;;;;;;21.10;63.41;97301.72;5070599;28;20420;-74
2022/06/29 01:09:41;;;;;;;7.70;4.70;;;;;;;21.04;63.52;97307.94;5071210;28;20449;-73
2022/06/29 01:12:06;;;;;;;4.80;4.40;;;;;;;20.93;64.01;97298.78;5069587;28;20427;-72
2022/06/29 01:14:32;;;;;;;4.90;4.40;;;;;;;20.88;64.09;97296.78;5069858;28;21109;-73
2022/06/29 01:16:57;;;;;;;4.67;4.27;;;;;;;20.91;63.63;97296.34;5070501;28;20198;-73
2022/06/29 01:19:23;;;;;;;5.00;4.60;;;;;;;20.95;63.67;97292.19;5063598;28;20206;-73
2022/06/29 01:21:52;;;;;;;9.10;4.67;;;;;;;20.97;63.46;97292.81;5070944;28;20541;-73
2022/06/29 01:24:19;;;;;;;5.07;4.50;;;;;;;20.94;63.47;97298.56;5070555;28;20592;-73
2022/06/29 01:26:45;;;;;;;5.77;4.70;;;;;;;20.85;64.24;97307.84;5070514;28;21111;-72
2022/06/29 01:29:10;;;;;;;4.67;4.17;;;;;;;20.75;64.29;97300.31;5070151;28;20429;-73
2022/06/29 01:31:36;;;;;;;4.80;4.40;;;;;;;20.78;64.22;97307.09;5074876;28;20678;-73
2022/06/29 01:34:02;;;;;;;4.70;4.33;;;;;;;20.77;64.13;97305.47;5070554;28;20201;-73
2022/06/29 01:36:28;;;;;;;5.80;4.80;;;;;;;20.76;63.99;97303.81;5072360;28;20211;-73
2022/06/29 01:38:53;;;;;;;5.17;4.40;;;;;;;20.80;63.79;97307.66;5070455;28;20202;-73
2022/06/29 01:41:19;;;;;;;5.20;4.30;;;;;;;20.81;63.82;97318.13;5070140;28;20589;-73
2022/06/29 01:43:44;;;;;;;5.77;4.60;;;;;;;20.83;63.60;97323.22;5070448;28;20224;-73
2022/06/29 01:46:09;;;;;;;9.93;4.67;;;;;;;20.76;64.24;97322.47;5069318;28;20181;-72
2022/06/29 01:48:35;;;;;;;5.00;4.60;;;;;;;20.80;64.18;97318.31;5070322;28;20210;-73
2022/06/29 01:51:00;;;;;;;5.17;4.70;;;;;;;20.80;64.02;97313.81;5070302;28;20272;-72
2022/06/29 01:53:26;;;;;;;5.90;4.73;;;;;;;20.79;64.07;97316.72;5064522;28;20186;-73
2022/06/29 01:55:52;;;;;;;6.87;4.67;;;;;;;20.81;64.17;97317.28;5070407;28;20673;-73
2022/06/29 01:58:17;;;;;;;4.77;4.43;;;;;;;20.87;64.04;97317.25;5061255;28;20224;-73
2022/06/29 02:00:44;;;;;;;8.90;4.67;;;;;;;20.87;63.81;97311.91;5070329;28;20198;-73
2022/06/29 02:03:10;;;;;;;5.30;4.80;;;;;;;20.86;64.11;97314.81;5070026;28;20197;-72
2022/06/29 02:05:36;;;;;;;6.83;4.87;;;;;;;20.85;63.81;97306.03;5068499;28;20954;-72
2022/06/29 02:08:02;;;;;;;6.00;4.60;;;;;;;20.84;64.12;97296.41;5069913;28;20460;-72
2022/06/29 02:10:27;;;;;;;4.67;4.27;;;;;;;20.77;64.39;97300.13;5069679;28;20931;-73
2022/06/29 02:12:53;;;;;;;4.17;3.87;;;;;;;20.67;64.33;97298.72;5070567;28;20182;-74
2022/06/29 02:15:18;;;;;;;4.40;4.10;;;;;;;20.70;64.70;97303.59;5066681;28;20182;-72
2022/06/29 02:17:44;;;;;;;6.50;5.00;;;;;;;20.76;64.06;97299.28;5069979;28;20186;-73
2022/06/29 02:20:11;;;;;;;6.50;4.70;;;;;;;20.76;64.56;97303.81;5069917;28;20215;-73
2022/06/29 02:22:37;;;;;;;4.77;4.37;;;;;;;20.72;64.39;97296.22;5070165;28;20197;-72
2022/06/29 02:25:03;;;;;;;5.73;5.17;;;;;;;20.58;65.07;97285.88;5068995;28;20461;-72
2022/06/29 02:27:29;;;;;;;5.57;4.47;;;;;;;20.59;64.44;97282.19;5066647;28;20227;-72
2022/06/29 02:29:54;;;;;;;8.10;4.70;;;;;;;20.55;64.55;97277.28;5072966;28;20547;-73
2022/06/29 02:35:04;;;;;;;8.50;4.97;;;;;;;20.52;64.70;97271.59;5072063;28;20194;-72
2022/06/29 02:37:29;;;;;;;5.17;4.70;;;;;;;20.51;64.79;97281.41;5068397;28;20873;-73
2022/06/29 02:39:55;;;;;;;5.17;4.67;;;;;;;20.53;65.10;97273.22;5070055;28;20206;-73
2022/06/29 02:42:20;;;;;;;5.40;4.87;;;;;;;20.54;64.95;97275.66;5069878;28;20239;-71
2022/06/29 02:44:46;;;;;;;4.97;4.57;;;;;;;20.59;64.87;97271.56;5069688;28;20182;-72
2022/06/29 02:47:11;;;;;;;7.93;4.73;;;;;;;20.63;64.59;97267.41;5069320;28;20194;-72
2022/06/29 02:49:37;;;;;;;5.03;4.40;;;;;;;20.66;64.78;97262.50;5070909;28;20248;-73
2022/06/29 02:52:03;;;;;;;7.43;5.23;;;;;;;20.64;64.64;97269.03;5068029;28;20183;-71
2022/06/29 02:54:29;;;;;;;5.33;4.63;;;;;;;20.58;64.70;97264.59;5073905;28;20212;-72
2022/06/29 02:56:54;;;;;;;6.90;5.10;;;;;;;20.57;64.76;97269.09;5073383;28;20259;-72
2022/06/29 02:59:20;;;;;;;4.70;4.30;;;;;;;20.53;64.69;97262.56;5073038;28;20214;-73
2022/06/29 03:01:46;;;;;;;5.50;5.00;;;;;;;20.48;64.83;97273.03;5073493;28;20657;-73
2022/06/29 03:04:12;;;;;;;5.00;4.50;;;;;;;20.47;65.04;97271.41;5073363;28;20436;-73
2022/06/29 03:06:37;;;;;;;5.20;4.60;;;;;;;20.45;65.06;97276.13;5073203;28;20206;-72
2022/06/29 03:09:03;;;;;;;5.83;5.10;;;;;;;20.47;64.72;97268.75;5072968;28;20182;-71
2022/06/29 03:11:29;;;;;;;6.60;5.00;;;;;;;20.42;64.97;97262.22;5073641;28;20236;-73
2022/06/29 03:13:54;;;;;;;5.97;5.47;;;;;;;20.46;64.90;97267.94;5073057;28;20413;-73
2022/06/29 03:16:20;;;;;;;6.30;5.00;;;;;;;20.46;65.06;97277.75;5072678;28;20241;-72
2022/06/29 03:18:45;;;;;;;5.87;5.33;;;;;;;20.40;65.28;97269.63;5073007;28;20202;-74
2022/06/29 03:21:11;;;;;;;6.30;5.53;;;;;;;20.44;64.91;97271.81;5072710;28;20210;-73
2022/06/29 03:23:37;;;;;;;5.40;4.67;;;;;;;20.37;65.14;97264.72;5073076;28;20187;-74
2022/06/29 03:26:03;;;;;;;5.73;4.97;;;;;;;20.41;65.06;97259.78;5075278;28;20245;-72
2022/06/29 03:28:28;;;;;;;8.47;4.83;;;;;;;20.39;65.11;97261.81;5067166;28;20439;-74
2022/06/29 03:30:54;;;;;;;5.43;4.93;;;;;;;20.34;65.21;97262.47;5079742;28;20245;-73
2022/06/29 03:33:21;;;;;;;5.67;5.03;;;;;;;20.31;65.59;97260.22;5072478;28;20271;-74
2022/06/29 03:35:46;;;;;;;8.13;5.13;;;;;;;20.30;65.35;97263.13;5075223;28;20210;-74
2022/06/29 03:38:12;;;;;;;6.87;4.80;;;;;;;20.25;65.50;97274.41;5072285;28;20478;-73
2022/06/29 03:40:37;;;;;;;5.57;5.07;;;;;;;20.24;65.52;97265.59;5072941;28;20205;-74
2022/06/29 03:43:03;;;;;;;4.87;4.47;;;;;;;20.29;65.14;97262.28;5060428;28;20670;-72
2022/06/29 03:45:28;;;;;;;5.10;4.60;;;;;;;20.23;65.44;97252.50;5072454;28;20269;-74
2022/06/29 03:47:54;;;;;;;9.53;5.40;;;;;;;20.20;65.61;97259.06;5060377;28;20205;-73
2022/06/29 03:50:20;;;;;;;7.70;5.53;;;;;;;20.14;65.99;97264.44;5075052;28;20574;-74
2022/06/29 03:52:46;;;;;;;7.47;5.30;;;;;;;20.21;65.94;97265.19;5080197;28;20216;-73
2022/06/29 03:55:11;;;;;;;5.50;5.10;;;;;;;20.24;65.66;97254.94;5080737;28;20563;-73
2022/06/29 03:57:37;;;;;;;7.10;5.30;;;;;;;20.26;65.26;97257.41;5075309;28;20467;-74
2022/06/29 04:00:03;;;;;;;6.37;5.63;;;;;;;20.21;65.36;97265.19;5083671;28;20194;-74
2022/06/29 04:02:29;;;;;;;10.67;7.33;;;;;;;20.22;65.33;97258.84;5071657;28;20186;-74
2022/06/29 04:04:54;;;;;;;8.73;6.63;;;;;;;20.23;65.22;97252.50;5073588;28;20437;-73
2022/06/29 04:07:20;;;;;;;8.63;5.57;;;;;;;20.17;65.52;97256.00;5058338;28;20645;-73
2022/06/29 04:09:45;;;;;;;7.00;6.40;;;;;;;20.16;65.92;97254.41;5051477;28;20213;-73
2022/06/29 04:12:11;;;;;;;7.03;6.43;;;;;;;20.12;66.18;97255.84;5050543;28;20186;-74
2022/06/29 04:14:36;;;;;;;12.20;7.40;;;;;;;20.14;66.28;97264.44;5054977;28;20198;-73
2022/06/29 04:17:02;;;;;;;9.30;7.60;;;;;;;20.17;66.04;97254.19;5054329;28;20210;-74
2022/06/29 04:19:28;;;;;;;15.20;8.10;;;;;;;20.14;66.57;97264.44;5056768;28;20206;-74
2022/06/29 04:21:54;;;;;;;10.97;8.20;;;;;;;20.16;66.40;97259.72;5054578;28;20460;-74
2022/06/29 04:24:20;;;;;;;18.00;7.73;;;;;;;20.20;66.51;97263.56;5060872;28;20183;-73
2022/06/29 04:26:46;;;;;;;11.60;7.90;;;;;;;20.32;66.52;97261.88;5065822;28;20822;-73
2022/06/29 04:29:11;;;;;;;8.30;7.40;;;;;;;20.26;66.54;97255.56;5059864;28;20497;-73
2022/06/29 04:31:37;;;;;;;8.90;8.00;;;;;;;20.33;66.22;97252.84;5072020;28;20655;-73
2022/06/29 04:34:03;;;;;;;9.50;8.10;;;;;;;20.37;66.04;97258.56;5059266;28;20190;-70
2022/06/29 04:36:29;;;;;;;11.57;10.40;;;;;;;20.30;66.30;97250.63;5071191;28;20293;-73
2022/06/29 04:38:55;;;;;;;10.07;9.13;;;;;;;20.29;66.39;97262.28;5057380;28;20194;-73
2022/06/29 04:41:21;;;;;;;12.20;8.27;;;;;;;20.22;66.64;97265.00;5074542;28;20456;-74
2022/06/29 04:43:47;;;;;;;13.13;10.70;;;;;;;20.19;66.53;97265.44;5071876;28;20553;-73
2022/06/29 04:46:19;;;;;;;10.97;9.87;;;;;;;20.33;66.86;97263.50;5054610;28;20417;-74
2022/06/29 04:48:46;;;;;;;15.13;11.30;;;;;;;20.47;66.14;97269.56;5069058;28;20439;-74
2022/06/29 04:51:11;;;;;;;11.20;9.97;;;;;;;20.52;66.41;97267.06;5070150;28;20455;-74
2022/06/29 04:53:37;;;;;;;10.23;8.80;;;;;;;20.59;65.98;97266.22;5071510;28;20421;-73
2022/06/29 04:56:02;;;;;;;8.30;7.50;;;;;;;20.65;65.98;97276.84;5085519;28;20208;-73
2022/06/29 04:58:28;;;;;;;9.53;8.57;;;;;;;20.67;66.42;97273.94;5074508;28;20659;-74
2022/06/29 05:00:54;;;;;;;11.73;7.23;;;;;;;20.71;66.25;97265.31;5082840;28;20236;-73
2022/06/29 05:03:19;;;;;;;8.70;6.80;;;;;;;20.78;66.18;97265.28;5085801;28;20194;-74
2022/06/29 05:05:47;;;;;;;9.60;6.27;;;;;;;20.86;66.26;97266.88;5072395;28;20174;-72
2022/06/29 05:08:14;;;;;;;11.47;7.23;;;;;;;20.85;66.34;97260.75;5083950;28;20609;-72
2022/06/29 05:10:40;;;;;;;7.17;6.47;;;;;;;20.85;66.19;97266.06;5058556;28;20463;-73
2022/06/29 05:13:08;;;;;;;16.67;7.80;;;;;;;20.90;66.21;97273.41;5079134;28;20946;-73
2022/06/29 05:15:34;;;;;;;7.30;6.60;;;;;;;20.95;66.67;97268.22;5079174;28;20664;-75
2022/06/29 05:17:59;;;;;;;7.50;6.70;;;;;;;20.98;66.07;97257.13;5078436;28;20440;-74
2022/06/29 05:20:25;;;;;;;11.93;6.90;;;;;;;20.95;66.59;97273.53;5084403;28;20200;-75
2022/06/29 05:22:50;;;;;;;7.67;6.80;;;;;;;20.97;66.62;97273.34;5074797;28;20186;-74
2022/06/29 05:25:16;;;;;;;6.90;6.00;;;;;;;21.01;66.44;97274.53;5085010;28;20200;-74
2022/06/29 05:27:41;;;;;;;6.97;6.27;;;;;;;21.02;66.36;97269.00;5076937;28;20191;-73
2022/06/29 05:30:07;;;;;;;7.40;6.20;;;;;;;21.11;66.44;97272.19;5076650;28;20215;-73
2022/06/29 05:32:33;;;;;;;9.83;7.30;;;;;;;21.20;66.50;97262.06;5061625;28;20185;-74
2022/06/29 05:34:58;;;;;;;6.40;5.90;;;;;;;21.25;66.16;97262.22;5070927;28;20477;-73
2022/06/29 05:37:24;;;;;;;9.13;6.07;;;;;;;21.35;66.11;97264.41;5062912;28;20210;-73
2022/06/29 05:39:49;;;;;;;14.40;7.00;;;;;;;21.45;66.10;97270.03;5058159;28;20199;-74
2022/06/29 05:42:15;;;;;;;9.70;6.67;;;;;;;21.54;65.52;97269.75;5065446;28;20183;-73
2022/06/29 05:44:41;;;;;;;10.33;6.33;;;;;;;21.65;65.11;97268.22;5058181;28;20249;-74
2022/06/29 05:47:07;;;;;;;9.73;6.57;;;;;;;21.77;65.09;97269.13;5049074;28;20190;-73
2022/06/29 05:49:34;;;;;;;13.00;6.27;;;;;;;21.91;64.85;97262.59;5059547;28;20867;-74
2022/06/29 05:52:00;;;;;;;11.33;6.07;;;;;;;22.05;64.64;97265.91;5056987;28;20520;-74
2022/06/29 05:54:25;;;;;;;7.73;6.30;;;;;;;22.19;64.39;97263.88;5080535;28;20519;-74
2022/06/29 05:56:51;;;;;;;11.50;6.03;;;;;;;22.36;64.42;97273.91;5078446;28;20249;-74
2022/06/29 05:59:16;;;;;;;7.40;6.80;;;;;;;22.48;63.42;97271.34;5070574;28;20247;-74
2022/06/29 06:01:42;;;;;;;6.13;5.53;;;;;;;22.64;63.43;97276.00;5088072;28;20648;-74
2022/06/29 06:04:07;;;;;;;6.73;5.33;;;;;;;22.79;63.16;97269.41;5064120;28;20266;-74
2022/06/29 06:06:33;;;;;;;8.33;7.43;;;;;;;22.67;60.64;97269.41;5071819;28;20187;-74
2022/06/29 06:09:00;;;;;;;9.60;6.23;;;;;;;22.85;61.48;97272.00;5055622;28;20183;-74
2022/06/29 06:11:25;;;;;;;9.40;7.00;;;;;;;23.01;60.25;97264.34;5054204;28;20205;-72
2022/06/29 06:13:51;;;;;;;7.63;6.87;;;;;;;23.08;59.65;97262.38;5051428;28;20782;-73
2022/06/29 06:16:16;;;;;;;10.00;6.07;;;;;;;23.06;58.38;97261.78;5053525;28;20547;-72
2022/06/29 06:18:42;;;;;;;7.43;6.27;;;;;;;23.13;58.63;97262.50;5053638;28;20194;-73
2022/06/29 06:21:07;;;;;;;10.63;6.00;;;;;;;23.14;58.60;97269.47;5053953;28;20198;-73
2022/06/29 06:23:33;;;;;;;9.60;5.47;;;;;;;23.01;58.50;97272.38;5056282;28;20642;-74
2022/06/29 06:25:58;;;;;;;8.80;5.60;;;;;;;23.15;58.72;97272.94;5055093;28;20316;-73
2022/06/29 06:28:23;;;;;;;9.20;6.30;;;;;;;23.24;58.78;97273.44;5055971;28;20181;-73
2022/06/29 06:30:49;;;;;;;6.97;6.37;;;;;;;23.18;58.49;97269.81;5075877;28;20677;-74
2022/06/29 06:33:14;;;;;;;6.07;5.53;;;;;;;23.31;58.60;97268.81;5083654;28;20194;-74
2022/06/29 06:35:40;;;;;;;8.63;6.13;;;;;;;23.38;57.83;97266.00;5062944;28;20183;-73
2022/06/29 06:38:05;;;;;;;7.60;5.90;;;;;;;23.44;57.64;97268.56;5073876;28;20638;-74
2022/06/29 06:43:15;;;;;;;7.00;6.40;;;;;;;23.68;57.42;97263.19;5078060;28;20553;-74
2022/06/29 06:45:42;;;;;;;6.17;5.00;;;;;;;23.93;57.82;97262.09;5077512;28;20423;-74
2022/06/29 06:48:08;;;;;;;5.67;5.17;;;;;;;24.19;57.41;97262.63;5062478;28;20241;-73
2022/06/29 06:50:33;;;;;;;12.43;6.13;;;;;;;24.41;56.20;97259.25;5074076;28;20443;-73
2022/06/29 06:52:59;;;;;;;7.47;6.43;;;;;;;24.57;55.69;97263.03;5049528;28;20430;-74
2022/06/29 06:55:24;;;;;;;6.80;5.37;;;;;;;24.71;54.97;97260.88;5054438;28;20209;-73
2022/06/29 06:57:50;;;;;;;6.00;5.20;;;;;;;24.90;53.96;97261.44;5070705;28;20569;-73
2022/06/29 07:00:16;;;;;;;10.10;5.23;;;;;;;25.08;54.12;97263.88;5071269;28;20211;-73
2022/06/29 07:02:41;;;;;;;6.40;5.73;;;;;;;25.23;52.37;97265.19;5073586;28;20231;-73
2022/06/29 07:05:07;;;;;;;5.30;4.90;;;;;;;25.34;52.74;97266.13;5074261;28;20688;-74
2022/06/29 07:07:33;;;;;;;12.47;4.70;;;;;;;25.42;52.49;97263.06;5079846;28;20170;-73
2022/06/29 07:09:59;;;;;;;7.00;4.90;;;;;;;25.44;51.33;97274.38;5061298;28;20203;-73
2022/06/29 07:12:25;;;;;;;6.33;4.80;;;;;;;25.49;50.48;97273.63;5045340;28;20887;-73
2022/06/29 07:14:51;;;;;;;6.00;3.70;;;;;;;25.57;50.14;97274.00;5070982;28;20252;-73
2022/06/29 07:17:16;;;;;;;4.43;4.13;;;;;;;25.70;50.74;97270.16;5057022;28;20461;-73
2022/06/29 07:19:42;;;;;;;7.30;4.10;;;;;;;25.88;50.70;97269.03;5074364;28;20280;-73
2022/06/29 07:22:07;;;;;;;4.33;3.93;;;;;;;26.07;50.70;97258.78;5061241;28;20183;-73
2022/06/29 07:24:33;;;;;;;3.93;3.63;;;;;;;26.28;49.64;97261.69;5085286;28;20640;-73
2022/06/29 07:26:58;;;;;;;4.20;3.80;;;;;;;26.46;49.10;97265.94;5060229;28;20178;-76
2022/06/29 07:29:24;;;;;;;6.20;4.97;;;;;;;26.63;48.55;97257.75;5072129;28;20182;-74
2022/06/29 07:31:50;;;;;;;5.37;4.20;;;;;;;26.79;48.32;97258.72;5075282;28;20215;-75
2022/06/29 07:34:15;;;;;;;5.13;4.27;;;;;;;26.90;47.74;97264.19;5071779;28;20577;-74
2022/06/29 07:36:42;;;;;;;10.53;3.93;;;;;;;26.88;47.32;97264.44;5048306;28;20202;-75
2022/06/29 07:39:07;;;;;;;4.93;4.43;;;;;;;27.02;46.64;97262.13;5075631;28;20180;-75
2022/06/29 07:41:33;;;;;;;4.70;3.70;;;;;;;27.15;46.59;97263.56;5066411;28;20533;-76
2022/06/29 07:43:58;;;;;;;4.50;4.10;;;;;;;27.31;46.32;97259.09;5071642;28;20276;-73
2022/06/29 07:46:24;;;;;;;5.47;4.13;;;;;;;27.49;46.43;97259.75;5067107;28;20166;-74
2022/06/29 07:48:50;;;;;;;4.60;3.07;;;;;;;27.66;46.37;97260.41;5072974;28;20216;-76
2022/06/29 07:51:16;;;;;;;10.17;4.10;;;;;;;27.83;46.65;97259.41;5076222;28;20202;-75
2022/06/29 07:53:41;;;;;;;4.00;3.70;;;;;;;27.96;45.00;97258.09;5076980;28;20512;-76
2022/06/29 07:56:06;;;;;;;4.63;3.80;;;;;;;28.08;44.91;97260.56;5087342;28;20743;-75
2022/06/29 07:58:32;;;;;;;7.53;4.00;;;;;;;28.22;44.56;97259.03;5082080;28;20221;-75
2022/06/29 08:00:57;;;;;;;11.93;3.83;;;;;;;28.31;43.76;97260.13;5087178;28;20266;-75
2022/06/29 08:03:23;;;;;;;3.87;3.57;;;;;;;28.45;44.11;97259.59;5079267;28;20196;-75
2022/06/29 08:05:48;;;;;;;4.57;3.63;;;;;;;28.55;44.08;97258.78;5086607;28;20256;-75
2022/06/29 08:08:14;;;;;;;4.17;3.77;;;;;;;28.74;43.86;97259.09;5087933;28;20181;-75
2022/06/29 08:10:40;;;;;;;4.03;3.60;;;;;;;28.79;42.92;97254.53;5072111;28;20269;-75
2022/06/29 08:13:05;;;;;;;7.27;3.60;;;;;;;28.84;43.34;97261.81;5087421;28;20186;-75
2022/06/29 08:15:31;;;;;;;3.70;3.40;;;;;;;28.81;42.94;97257.75;5083566;28;20190;-75
2022/06/29 08:17:57;;;;;;;7.10;3.70;;;;;;;28.87;43.43;97253.16;5086652;28;20326;-75
2022/06/29 08:20:23;;;;;;;4.43;3.43;;;;;;;28.93;43.95;97248.59;5087297;28;20201;-75
2022/06/29 08:22:49;;;;;;;3.80;3.50;;;;;;;29.03;43.63;97255.88;5086550;28;20489;-75
2022/06/29 08:25:14;;;;;;;6.10;3.60;;;;;;;29.15;43.12;97251.00;5087811;28;20254;-75
2022/06/29 08:27:41;;;;;;;13.73;4.10;;;;;;;29.27;42.56;97256.13;5075773;28;20174;-75
2022/06/29 08:30:08;;;;;;;4.33;3.93;;;;;;;29.29;41.75;97245.88;5081326;28;20335;-75
2022/06/29 08:32:34;;;;;;;4.13;3.83;;;;;;;29.20;42.35;97242.09;5084403;28;20436;-74
2022/06/29 08:35:01;;;;;;;4.63;3.80;;;;;;;29.15;43.36;97242.09;5084684;28;20491;-75
2022/06/29 08:37:28;;;;;;;3.60;3.30;;;;;;;29.09;43.00;97242.09;5086211;28;20290;-75
2022/06/29 08:39:54;;;;;;;4.23;2.80;;;;;;;28.98;42.27;97239.72;5086785;28;20436;-75
2022/06/29 08:42:23;;;;;;;3.20;3.00;;;;;;;28.87;42.76;97242.38;5088839;28;20493;-76
2022/06/29 08:44:50;;;;;;;4.30;3.07;;;;;;;28.73;42.48;97249.44;5075167;28;20473;-75
2022/06/29 08:47:15;;;;;;;3.43;3.10;;;;;;;28.59;43.02;97254.50;5087502;28;20426;-75
2022/06/29 08:49:41;;;;;;;8.07;3.73;;;;;;;28.45;43.36;97251.53;5083238;28;20923;-75
2022/06/29 08:52:08;;;;;;;3.73;3.43;;;;;;;28.35;44.93;97253.09;5072297;28;20175;-76
2022/06/29 08:54:41;;;;;;;3.47;3.23;;;;;;;28.26;44.53;97252.00;5074649;28;20209;-75
2022/06/29 08:57:07;;;;;;;3.30;3.10;;;;;;;28.19;44.36;97254.16;5081754;28;20461;-75
2022/06/29 08:59:34;;;;;;;3.63;3.33;;;;;;;28.12;44.18;97261.66;5068955;28;20815;-75
2022/06/29 09:02:00;;;;;;;4.00;3.70;;;;;;;28.06;43.06;97252.72;5062739;28;20206;-75
2022/06/29 09:04:26;;;;;;;4.13;3.63;;;;;;;27.96;43.71;97253.53;5049559;28;20930;-75
2022/06/29 09:06:55;;;;;;;8.00;3.80;;;;;;;27.90;44.28;97250.00;5089190;28;20423;-76
2022/06/29 09:09:22;;;;;;;6.00;3.50;;;;;;;27.85;44.61;97252.66;5084617;28;20186;-75
2022/06/29 09:11:49;;;;;;;5.53;3.53;;;;;;;27.80;44.43;97249.16;5083409;28;20428;-74
2022/06/29 09:14:20;;;;;;;3.47;3.27;;;;;;;27.72;43.83;97253.94;5083389;28;21088;-76
2022/06/29 09:16:49;;;;;;;5.80;3.57;;;;;;;27.72;45.38;97251.25;5083863;28;20868;-75
2022/06/29 09:19:18;;;;;;;6.03;3.60;;;;;;;27.72;44.31;97251.25;5085853;28;20424;-75
2022/06/29 09:21:45;;;;;;;8.47;4.40;;;;;;;27.68;44.46;97250.19;5083489;28;20834;-75
2022/06/29 09:24:18;;;;;;;3.93;3.63;;;;;;;27.64;45.24;97243.69;5073216;28;20500;-75
2022/06/29 09:26:55;;;;;;;4.60;4.20;;;;;;;27.63;45.46;97246.66;5084701;28;20431;-75
2022/06/29 09:29:23;;;;;;;5.00;4.50;;;;;;;27.65;45.38;97245.31;5078646;28;20431;-75
2022/06/29 09:32:18;;;;;;;6.00;3.97;;;;;;;27.66;45.51;97248.84;5081961;28;20420;-75
2022/06/29 09:34:51;;;;;;;4.20;3.80;;;;;;;27.69;45.66;97246.41;5078141;28;20535;-76
2022/06/29 09:37:19;;;;;;;6.73;4.27;;;;;;;27.72;45.28;97247.78;5083387;28;20470;-75
2022/06/29 09:39:46;;;;;;;5.60;3.67;;;;;;;27.76;45.21;97251.56;5078544;28;20954;-75
2022/06/29 09:42:16;;;;;;;4.27;3.87;;;;;;;27.81;45.34;97250.78;5087761;28;20415;-75
2022/06/29 09:44:43;;;;;;;3.53;3.23;;;;;;;27.86;45.13;97250.78;5080807;28;20959;-75
2022/06/29 09:47:19;;;;;;;5.50;4.07;;;;;;;27.90;45.20;97257.25;5087050;28;20412;-75
2022/06/29 09:49:49;;;;;;;4.10;3.80;;;;;;;27.92;45.02;97252.44;5081855;28;20467;-75
2022/06/29 09:52:17;;;;;;;4.90;4.50;;;;;;;27.97;45.18;97257.84;5074931;28;20437;-75
2022/06/29 09:54:47;;;;;;;5.20;3.60;;;;;;;28.02;45.06;97259.75;5082942;28;20471;-75
2022/06/29 09:57:13;;;;;;;4.70;3.70;;;;;;;28.04;45.12;97269.16;5078520;28;20456;-76
2022/06/29 10:05:28;;;;;;;4.90;4.40;;;;;;;28.18;44.72;97266.00;5077814;28;20450;-75
2022/06/29 10:07:54;;;;;;;5.03;4.20;;;;;;;28.23;44.89;97262.50;5087550;28;20426;-75
2022/06/29 10:10:23;;;;;;;7.17;4.40;;;;;;;28.32;44.90;97250.13;5082585;28;20451;-75
2022/06/29 10:16:10;;;;;;;6.20;4.67;;;;;;;28.56;44.56;97249.63;5080801;28;20417;-75
2022/06/29 10:19:00;;;;;;;6.40;4.00;;;;;;;28.65;44.35;97254.22;5077449;28;20420;-74
2022/06/29 10:21:28;;;;;;;6.23;4.33;;;;;;;28.77;44.76;97248.63;5083596;28;20538;-75
2022/06/29 10:23:58;;;;;;;6.77;4.00;;;;;;;29.05;44.76;97241.03;5088208;28;20430;-74
2022/06/29 10:26:34;;;;;;;7.03;4.40;;;;;;;29.20;43.62;97242.09;5083752;28;20428;-75
2022/06/29 10:29:05;;;;;;;5.27;3.97;;;;;;;29.28;43.47;97245.03;5075017;28;20510;-74
2022/06/29 10:31:59;;;;;;;6.13;3.57;;;;;;;29.37;44.08;97239.09;5074141;28;20806;-75
2022/06/29 10:34:31;;;;;;;3.63;3.30;;;;;;;29.37;43.78;97242.63;5077193;28;20436;-74
2022/06/29 10:37:02;;;;;;;5.47;3.70;;;;;;;29.26;43.87;97239.09;5084200;28;20470;-75
2022/06/29 10:39:37;;;;;;;5.70;3.47;;;;;;;29.31;43.87;97240.97;5083901;28;20411;-75
2022/06/29 10:45:01;;;;;;;6.43;3.73;;;;;;;29.30;44.29;97241.25;5079004;28;20417;-75
2022/06/29 10:47:27;;;;;;;5.97;3.77;;;;;;;29.28;44.29;97239.66;5086353;28;20451;-75
2022/06/29 10:50:14;;;;;;;9.27;4.10;;;;;;;29.16;43.77;97233.72;5074567;28;20540;-75
2022/06/29 10:52:40;;;;;;;6.60;3.83;;;;;;;29.08;43.66;97237.00;5072698;28;20411;-75
2022/06/29 10:55:07;;;;;;;3.77;3.43;;;;;;;29.06;44.04;97231.06;5079927;28;20435;-75
2022/06/29 10:57:37;;;;;;;4.77;3.33;;;;;;;28.99;44.03;97231.34;5084188;28;20482;-75
2022/06/29 11:00:06;;;;;;;6.10;3.83;;;;;;;28.98;43.84;97239.72;5082864;28;20447;-75
2022/06/29 11:02:31;;;;;;;4.30;3.90;;;;;;;28.96;43.57;97235.38;5071335;28;20481;-75
2022/06/29 11:04:57;;;;;;;9.23;3.90;;;;;;;28.96;43.69;97231.88;5077280;28;20846;-74
2022/06/29 11:12:53;;;;;;;8.53;3.70;;;;;;;28.92;43.93;97231.59;5084225;28;20424;-74
2022/06/29 11:16:08;;;;;;;6.97;4.23;;;;;;;28.96;43.73;97231.88;5087707;28;20420;-74
2022/06/29 11:18:31;;;;;;;3.83;3.43;;;;;;;29.08;43.84;97227.00;5091263;28;20907;-74
2022/06/29 11:21:02;;;;;;;8.23;3.90;;;;;;;29.33;43.72;97221.84;5084399;28;20520;-75
2022/06/29 11:23:30;;;;;;;6.13;3.83;;;;;;;29.39;43.32;97223.44;5077384;28;20473;-75
2022/06/29 11:25:56;;;;;;;6.63;3.87;;;;;;;29.48;43.38;97229.09;5084781;28;20424;-75
2022/06/29 11:28:25;;;;;;;8.37;3.30;;;;;;;29.48;44.05;97221.81;5078138;28;20437;-75
2022/06/29 11:31:04;;;;;;;3.60;3.30;;;;;;;29.45;42.63;97225.06;5079460;28;20444;-75
2022/06/29 11:33:32;;;;;;;3.53;3.23;;;;;;;29.67;42.30;97219.34;5084801;28;20463;-74
2022/06/29 11:36:06;;;;;;;5.10;3.13;;;;;;;29.86;42.43;97222.22;5068311;28;20619;-75
2022/06/29 11:38:36;;;;;;;5.90;3.53;;;;;;;30.05;42.69;97213.50;5039286;28;20412;-74
2022/06/29 11:44:27;;;;;;;7.40;3.40;;;;;;;30.55;40.29;97208.06;5082792;28;20427;-75
2022/06/29 11:46:53;;;;;;;5.43;3.27;;;;;;;30.60;39.69;97212.63;5063752;28;20994;-74
2022/06/29 11:49:36;;;;;;;4.20;2.97;;;;;;;30.62;39.98;97208.53;5086802;28;20422;-74
2022/06/29 11:52:08;;;;;;;4.10;3.07;;;;;;;30.59;39.97;97200.97;5077561;28;20428;-75
2022/06/29 11:54:40;;;;;;;4.60;3.43;;;;;;;30.57;40.41;97203.16;5068878;28;20416;-74
2022/06/29 11:57:11;;;;;;;5.10;3.67;;;;;;;30.61;40.87;97208.84;5084001;28;20535;-75